Weather History for Claremore, OK

Change the Weather History Date:

Friday, March 14, 2014

  Actual Average (KTUL) Record (KTUL)
Temperature  
Mean Temperature 56 °F 51 °F  
Max Temperature 69 °F 62 °F 85 °F (1971)
Min Temperature 42 °F 40 °F 13 °F (1975)
Degree Days  
Heating Degree Days 10 15  
Month to date heating degree days 232  
Since 1 July heating degree days 3143  
Cooling Degree Days 0 0  
Month to date cooling degree days 0  
Year to date cooling degree days 1  
Growing Degree Days 6 (Base 50)    
Moisture  
Dew Point 32 °F    
Average Humidity 43    
Maximum Humidity 66    
Minimum Humidity 23    
Precipitation  
Precipitation 0.00 in 0.11 in 2.10 in (1898)
Month to date precipitation 1.41  
Year to date precipitation 4.92  
Sea Level Pressure  
Sea Level Pressure 29.99 in    
Wind  
Wind Speed 9 mph (SSW)    
Max Wind Speed 16 mph    
Max Gust Speed 23 mph    
Visibility 10 miles    
Events      
T = Trace of Precipitation, MM = Missing Value Source: NWS Daily Summary

Daily Weather History Graph

Daily Weather History Graph

Search for Another Location

Airport:

Trip Planner

Search our weather history database for the weather conditions in past years. The results will help you decide how hot, cold, wet, or windy it might be!

Date:

Astronomy

Mar. 14, 2014 Rise Set
Actual Time 7:34 AM CDT 7:28 PM CDT
Civil Twilight 7:08 AM CDT 7:54 PM CDT
Nautical Twilight 6:38 AM CDT 8:24 PM CDT
Astronomical Twilight 6:08 AM CDT 8:54 PM CDT
Moon 5:53 PM CDT (3/14) 6:12 AM CDT (3/14)
Length of Visible Light 12h 45m
Length of Day
11h 54m
Waxing Gibbous, 96% of the Moon is Illuminated
Mar 14
Waxing Gibbous
Mar 16
Full
Mar 23
Last Quarter
Mar 30
New
Apr 7
First Quarter

Hourly Weather History & Observations

Time (CDT) Temp. Windchill Dew Point Humidity Pressure Visibility Wind Dir Wind Speed Gust Speed Precip Events Conditions
12:15 AM 48.2 °F - 28.4 °F 46% 30.01 in 10.0 mi South 10.4 mph - N/A   Clear
12:35 AM 50.0 °F - 28.4 °F 43% 30.01 in 10.0 mi South 10.4 mph - N/A   Clear
12:55 AM 48.2 °F - 28.4 °F 46% 30.00 in 10.0 mi South 8.1 mph - N/A   Clear
1:15 AM 46.4 °F 41.9 °F 30.2 °F 53% 30.00 in 10.0 mi South 9.2 mph - N/A   Clear
1:35 AM 46.4 °F 40.7 °F 30.2 °F 53% 30.00 in 10.0 mi South 12.7 mph - N/A   Clear
1:55 AM 46.4 °F 41.1 °F 30.2 °F 53% 29.99 in 10.0 mi South 11.5 mph - N/A   Clear
2:15 AM 46.4 °F 40.4 °F 30.2 °F 53% 29.99 in 10.0 mi South 13.8 mph - N/A   Clear
2:35 AM 46.4 °F 40.7 °F 32.0 °F 57% 29.99 in 10.0 mi South 12.7 mph - N/A   Clear
2:55 AM 46.4 °F 40.7 °F 32.0 °F 57% 29.99 in 10.0 mi South 12.7 mph - N/A   Clear
3:15 AM 44.6 °F 38.8 °F 32.0 °F 61% 30.00 in 10.0 mi South 11.5 mph - N/A   Clear
3:35 AM 44.6 °F 40.2 °F 32.0 °F 61% 29.99 in 10.0 mi South 8.1 mph - N/A   Clear
3:55 AM 46.4 °F 41.5 °F 32.0 °F 57% 29.99 in 10.0 mi South 10.4 mph - N/A   Clear
4:15 AM 46.4 °F 41.5 °F 32.0 °F 57% 29.98 in 10.0 mi South 10.4 mph - N/A   Clear
4:35 AM 44.6 °F 40.7 °F 32.0 °F 61% 29.98 in 10.0 mi South 6.9 mph - N/A   Clear
4:55 AM 42.8 °F 38.0 °F 32.0 °F 66% 29.97 in 10.0 mi South 8.1 mph - N/A   Clear
5:15 AM 44.6 °F 40.2 °F 32.0 °F 61% 29.97 in 10.0 mi South 8.1 mph - N/A   Clear
5:35 AM 44.6 °F 38.8 °F 32.0 °F 61% 29.97 in 10.0 mi South 11.5 mph - N/A   Clear
5:55 AM 46.4 °F 41.1 °F 32.0 °F 57% 29.96 in 10.0 mi South 11.5 mph 17.3 mph N/A   Clear
6:15 AM 46.4 °F 41.1 °F 32.0 °F 57% 29.95 in 10.0 mi South 11.5 mph - N/A   Clear
6:55 AM 46.4 °F 41.9 °F 32.0 °F 57% 29.95 in 10.0 mi South 9.2 mph - N/A   Clear
7:15 AM 46.4 °F 40.4 °F 32.0 °F 57% 29.95 in 10.0 mi South 13.8 mph - N/A   Clear
7:35 AM 48.2 °F - 32.0 °F 54% 29.95 in 10.0 mi South 10.4 mph 17.3 mph N/A   Clear
7:55 AM 50.0 °F - 32.0 °F 50% 29.95 in 10.0 mi South 11.5 mph - N/A   Clear
8:15 AM 50.0 °F - 32.0 °F 50% 29.95 in 10.0 mi South 10.4 mph - N/A   Clear
8:35 AM 50.0 °F - 32.0 °F 50% 29.96 in 10.0 mi South 10.4 mph - N/A   Clear
8:55 AM 51.8 °F - 32.0 °F 47% 29.97 in 10.0 mi South 13.8 mph 17.3 mph N/A   Clear
9:15 AM 51.8 °F - 32.0 °F 47% 29.97 in 10.0 mi South 13.8 mph - N/A   Clear
9:35 AM 53.6 °F - 32.0 °F 44% 29.98 in 10.0 mi SSW 12.7 mph 18.4 mph N/A   Clear
9:55 AM 55.4 °F - 32.0 °F 41% 29.99 in 10.0 mi SSW 12.7 mph 18.4 mph N/A   Clear
10:15 AM 55.4 °F - 32.0 °F 41% 29.99 in 10.0 mi SSW 12.7 mph 19.6 mph N/A   Clear
10:35 AM 55.4 °F - 32.0 °F 41% 30.01 in 10.0 mi South 15.0 mph - N/A   Clear
10:55 AM 55.4 °F - 32.0 °F 41% 30.00 in 10.0 mi SSW 16.1 mph 23.0 mph N/A   Clear
11:15 AM 57.2 °F - 32.0 °F 38% 30.01 in 10.0 mi SSW 13.8 mph - N/A   Clear
11:35 AM 59.0 °F - 33.8 °F 39% 30.01 in 10.0 mi SSW 11.5 mph 17.3 mph N/A   Clear
11:55 AM 60.8 °F - 32.0 °F 34% 30.01 in 10.0 mi SW 12.7 mph - N/A   Clear
12:15 PM 62.6 °F - 32.0 °F 32% 30.01 in 10.0 mi SSW 12.7 mph 18.4 mph N/A   Clear
12:35 PM 62.6 °F - 32.0 °F 32% 30.01 in 10.0 mi SW 10.4 mph 16.1 mph N/A   Clear
12:55 PM 64.4 °F - 32.0 °F 30% 30.01 in 10.0 mi SW 9.2 mph 18.4 mph N/A   Clear
1:15 PM 64.4 °F - 32.0 °F 30% 30.01 in 10.0 mi West 8.1 mph - N/A   Clear
1:35 PM 64.4 °F - 32.0 °F 30% 30.00 in 10.0 mi WNW 8.1 mph - N/A   Clear
1:55 PM 64.4 °F - 32.0 °F 30% 30.00 in 10.0 mi SW 5.8 mph - N/A   Clear
2:15 PM 66.2 °F - 32.0 °F 28% 29.99 in 10.0 mi SW 5.8 mph - N/A   Clear
2:35 PM 66.2 °F - 32.0 °F 28% 29.98 in 10.0 mi SSW 5.8 mph - N/A   Clear
2:55 PM 68.0 °F - 32.0 °F 26% 29.98 in 10.0 mi SW 5.8 mph - N/A   Clear
3:15 PM 68.0 °F - 32.0 °F 26% 29.98 in 10.0 mi SW 5.8 mph - N/A   Clear
3:35 PM 69.8 °F - 32.0 °F 25% 29.98 in 10.0 mi South 3.5 mph - N/A   Clear
3:55 PM 69.8 °F - 32.0 °F 25% 29.98 in 10.0 mi WNW 4.6 mph - N/A   Clear
4:15 PM 69.8 °F - 32.0 °F 25% 29.98 in 10.0 mi West 3.5 mph - N/A   Clear
4:35 PM 69.8 °F - 32.0 °F 25% 29.98 in 10.0 mi NW 4.6 mph - N/A   Clear
4:55 PM 69.8 °F - 32.0 °F 25% 29.98 in 10.0 mi West 4.6 mph - N/A   Clear
5:15 PM 69.8 °F - 32.0 °F 25% 29.98 in 10.0 mi Calm Calm - N/A   Clear
5:35 PM 69.8 °F - 32.0 °F 25% 29.97 in 10.0 mi NW 5.8 mph - N/A   Clear
5:55 PM 69.8 °F - 32.0 °F 25% 29.98 in 10.0 mi West 4.6 mph - N/A   Clear
6:15 PM 69.8 °F - 30.2 °F 23% 29.97 in 10.0 mi Calm Calm - N/A   Clear
6:35 PM 68.0 °F - 32.0 °F 26% 29.98 in 10.0 mi North 3.5 mph - N/A   Clear
6:55 PM 68.0 °F - 32.0 °F 26% 29.98 in 10.0 mi Calm Calm - N/A   Clear
7:15 PM 66.2 °F - 32.0 °F 28% 29.99 in 10.0 mi Calm Calm - N/A   Clear
7:35 PM 60.8 °F - 32.0 °F 34% 29.99 in 10.0 mi Calm Calm - N/A   Clear
7:55 PM 59.0 °F - 32.0 °F 36% 29.99 in 10.0 mi East 3.5 mph - N/A   Clear
8:15 PM 55.4 °F - 32.0 °F 41% 30.00 in 10.0 mi ESE 4.6 mph - N/A   Clear
8:35 PM 55.4 °F - 32.0 °F 41% 30.01 in 10.0 mi Calm Calm - N/A   Clear
8:55 PM 53.6 °F - 32.0 °F 44% 30.01 in 10.0 mi NE 4.6 mph - N/A   Clear
9:15 PM 51.8 °F - 33.8 °F 50% 30.01 in 10.0 mi Calm Calm - N/A   Clear
9:35 PM 53.6 °F - 32.0 °F 44% 30.02 in 10.0 mi Calm Calm - N/A   Clear
9:55 PM 51.8 °F - 32.0 °F 47% 30.02 in 10.0 mi Calm Calm - N/A   Clear
10:15 PM 48.2 °F - 33.8 °F 58% 30.03 in 10.0 mi ENE 3.5 mph - N/A   Clear
10:35 PM 50.0 °F - 33.8 °F 54% 30.03 in 10.0 mi East 4.6 mph - N/A   Clear
10:55 PM 46.4 °F 45.2 °F 33.8 °F 62% 30.03 in 10.0 mi ENE 3.5 mph - N/A   Clear
11:15 PM 48.2 °F - 32.0 °F 54% 30.03 in 10.0 mi NE 3.5 mph - N/A   Clear
11:35 PM 48.2 °F - 33.8 °F 58% 30.03 in 10.0 mi Calm Calm - N/A   Clear
11:55 PM 46.4 °F 45.2 °F 33.8 °F 62% 30.03 in 10.0 mi ENE 3.5 mph - N/A   Clear